sensor_id;sensor_type;location;lat;lon;timestamp;P1;durP1;ratioP1;P2;durP2;ratioP2
7158;SDS011;63175;52.374;13.132;2023-12-20T00:02:01;1.87;;;1.77;;
7158;SDS011;63175;52.374;13.132;2023-12-20T00:04:28;2.17;;;2.07;;
7158;SDS011;63175;52.374;13.132;2023-12-20T00:06:55;2.10;;;2.00;;
7158;SDS011;63175;52.374;13.132;2023-12-20T00:09:22;2.30;;;2.20;;
7158;SDS011;63175;52.374;13.132;2023-12-20T00:11:49;2.73;;;2.53;;
7158;SDS011;63175;52.374;13.132;2023-12-20T00:14:17;1.80;;;1.80;;
7158;SDS011;63175;52.374;13.132;2023-12-20T00:16:44;2.10;;;2.00;;
7158;SDS011;63175;52.374;13.132;2023-12-20T00:19:11;2.40;;;2.20;;
7158;SDS011;63175;52.374;13.132;2023-12-20T00:21:38;2.20;;;2.10;;
7158;SDS011;63175;52.374;13.132;2023-12-20T00:24:05;2.33;;;2.23;;
7158;SDS011;63175;52.374;13.132;2023-12-20T00:26:32;2.00;;;1.90;;
7158;SDS011;63175;52.374;13.132;2023-12-20T00:28:59;2.20;;;2.10;;
7158;SDS011;63175;52.374;13.132;2023-12-20T00:31:27;2.17;;;2.07;;
7158;SDS011;63175;52.374;13.132;2023-12-20T00:33:54;2.30;;;2.20;;
7158;SDS011;63175;52.374;13.132;2023-12-20T00:36:21;2.00;;;1.90;;
7158;SDS011;63175;52.374;13.132;2023-12-20T00:38:48;1.20;;;1.20;;
7158;SDS011;63175;52.374;13.132;2023-12-20T00:41:16;1.97;;;1.87;;
7158;SDS011;63175;52.374;13.132;2023-12-20T00:43:43;2.20;;;2.10;;
7158;SDS011;63175;52.374;13.132;2023-12-20T00:46:10;1.97;;;1.87;;
7158;SDS011;63175;52.374;13.132;2023-12-20T00:48:38;2.03;;;1.93;;
7158;SDS011;63175;52.374;13.132;2023-12-20T00:51:07;2.00;;;1.90;;
7158;SDS011;63175;52.374;13.132;2023-12-20T00:53:34;2.03;;;1.93;;
7158;SDS011;63175;52.374;13.132;2023-12-20T00:56:01;2.10;;;1.90;;
7158;SDS011;63175;52.374;13.132;2023-12-20T00:58:28;2.07;;;1.97;;
7158;SDS011;63175;52.374;13.132;2023-12-20T01:00:54;2.00;;;1.90;;
7158;SDS011;63175;52.374;13.132;2023-12-20T01:03:21;1.63;;;1.63;;
7158;SDS011;63175;52.374;13.132;2023-12-20T01:05:49;1.90;;;1.80;;
7158;SDS011;63175;52.374;13.132;2023-12-20T01:08:16;1.80;;;1.70;;
7158;SDS011;63175;52.374;13.132;2023-12-20T01:10:43;1.50;;;1.50;;
7158;SDS011;63175;52.374;13.132;2023-12-20T01:13:11;1.70;;;1.70;;
7158;SDS011;63175;52.374;13.132;2023-12-20T01:15:38;4.60;;;2.00;;
7158;SDS011;63175;52.374;13.132;2023-12-20T01:18:05;1.67;;;1.67;;
7158;SDS011;63175;52.374;13.132;2023-12-20T01:20:32;2.13;;;2.03;;
7158;SDS011;63175;52.374;13.132;2023-12-20T01:23:00;2.00;;;1.90;;
7158;SDS011;63175;52.374;13.132;2023-12-20T01:25:27;2.00;;;1.90;;
7158;SDS011;63175;52.374;13.132;2023-12-20T01:27:54;2.00;;;1.90;;
7158;SDS011;63175;52.374;13.132;2023-12-20T01:30:20;2.00;;;1.90;;
7158;SDS011;63175;52.374;13.132;2023-12-20T01:32:47;1.90;;;1.80;;
7158;SDS011;63175;52.374;13.132;2023-12-20T01:35:14;2.60;;;2.50;;
7158;SDS011;63175;52.374;13.132;2023-12-20T01:37:41;2.10;;;2.00;;
7158;SDS011;63175;52.374;13.132;2023-12-20T01:40:10;2.20;;;2.10;;
7158;SDS011;63175;52.374;13.132;2023-12-20T01:42:37;2.43;;;2.33;;
7158;SDS011;63175;52.374;13.132;2023-12-20T01:45:04;2.40;;;2.30;;
7158;SDS011;63175;52.374;13.132;2023-12-20T01:47:31;2.23;;;2.13;;
7158;SDS011;63175;52.374;13.132;2023-12-20T01:49:58;1.93;;;1.83;;
7158;SDS011;63175;52.374;13.132;2023-12-20T01:52:25;2.87;;;2.77;;
7158;SDS011;63175;52.374;13.132;2023-12-20T01:54:53;2.07;;;1.97;;
7158;SDS011;63175;52.374;13.132;2023-12-20T01:57:27;2.50;;;2.40;;
7158;SDS011;63175;52.374;13.132;2023-12-20T01:59:54;2.50;;;2.40;;
7158;SDS011;63175;52.374;13.132;2023-12-20T02:02:22;2.90;;;2.80;;
7158;SDS011;63175;52.374;13.132;2023-12-20T02:04:49;2.87;;;2.73;;
7158;SDS011;63175;52.374;13.132;2023-12-20T02:07:16;3.10;;;2.90;;
7158;SDS011;63175;52.374;13.132;2023-12-20T02:09:45;3.00;;;2.87;;
7158;SDS011;63175;52.374;13.132;2023-12-20T02:12:12;3.20;;;3.00;;
7158;SDS011;63175;52.374;13.132;2023-12-20T02:14:40;2.40;;;2.30;;
7158;SDS011;63175;52.374;13.132;2023-12-20T02:17:07;3.80;;;3.60;;
7158;SDS011;63175;52.374;13.132;2023-12-20T02:19:34;3.10;;;2.90;;
7158;SDS011;63175;52.374;13.132;2023-12-20T02:22:09;3.60;;;3.40;;
7158;SDS011;63175;52.374;13.132;2023-12-20T02:24:36;3.13;;;2.87;;
7158;SDS011;63175;52.374;13.132;2023-12-20T02:27:04;2.87;;;2.77;;
7158;SDS011;63175;52.374;13.132;2023-12-20T02:29:32;3.37;;;3.17;;
7158;SDS011;63175;52.374;13.132;2023-12-20T02:32:00;2.63;;;2.43;;
7158;SDS011;63175;52.374;13.132;2023-12-20T02:34:27;3.20;;;3.10;;
7158;SDS011;63175;52.374;13.132;2023-12-20T02:36:54;3.33;;;3.13;;
7158;SDS011;63175;52.374;13.132;2023-12-20T02:39:22;3.00;;;2.90;;
7158;SDS011;63175;52.374;13.132;2023-12-20T02:41:49;3.00;;;2.90;;
7158;SDS011;63175;52.374;13.132;2023-12-20T02:44:16;3.50;;;3.30;;
7158;SDS011;63175;52.374;13.132;2023-12-20T02:46:43;4.10;;;3.70;;
7158;SDS011;63175;52.374;13.132;2023-12-20T02:49:10;3.30;;;3.10;;
7158;SDS011;63175;52.374;13.132;2023-12-20T02:51:37;3.90;;;3.70;;
7158;SDS011;63175;52.374;13.132;2023-12-20T02:54:04;3.47;;;3.27;;
7158;SDS011;63175;52.374;13.132;2023-12-20T02:56:32;4.03;;;3.83;;
7158;SDS011;63175;52.374;13.132;2023-12-20T02:58:59;4.73;;;4.30;;
7158;SDS011;63175;52.374;13.132;2023-12-20T03:01:26;3.90;;;3.70;;
7158;SDS011;63175;52.374;13.132;2023-12-20T03:03:53;4.83;;;4.53;;
7158;SDS011;63175;52.374;13.132;2023-12-20T03:06:20;4.47;;;4.17;;
7158;SDS011;63175;52.374;13.132;2023-12-20T03:08:47;4.57;;;4.27;;
7158;SDS011;63175;52.374;13.132;2023-12-20T03:11:13;4.30;;;4.00;;
7158;SDS011;63175;52.374;13.132;2023-12-20T03:13:41;4.67;;;4.27;;
7158;SDS011;63175;52.374;13.132;2023-12-20T03:16:08;4.83;;;4.43;;
7158;SDS011;63175;52.374;13.132;2023-12-20T03:18:35;4.53;;;4.23;;
7158;SDS011;63175;52.374;13.132;2023-12-20T03:21:02;5.53;;;5.03;;
7158;SDS011;63175;52.374;13.132;2023-12-20T03:23:30;5.40;;;4.90;;
7158;SDS011;63175;52.374;13.132;2023-12-20T03:25:57;7.03;;;6.33;;
7158;SDS011;63175;52.374;13.132;2023-12-20T03:28:24;5.60;;;5.10;;
7158;SDS011;63175;52.374;13.132;2023-12-20T03:30:53;5.90;;;5.30;;
7158;SDS011;63175;52.374;13.132;2023-12-20T03:33:20;5.50;;;5.10;;
7158;SDS011;63175;52.374;13.132;2023-12-20T03:35:47;6.27;;;5.23;;
7158;SDS011;63175;52.374;13.132;2023-12-20T03:38:14;4.90;;;4.53;;
7158;SDS011;63175;52.374;13.132;2023-12-20T03:40:41;8.50;;;3.80;;
7158;SDS011;63175;52.374;13.132;2023-12-20T03:43:08;5.00;;;4.60;;
7158;SDS011;63175;52.374;13.132;2023-12-20T03:45:34;4.47;;;4.17;;
7158;SDS011;63175;52.374;13.132;2023-12-20T03:48:03;4.93;;;4.53;;
7158;SDS011;63175;52.374;13.132;2023-12-20T03:50:30;5.10;;;4.70;;
7158;SDS011;63175;52.374;13.132;2023-12-20T03:52:57;4.77;;;4.43;;
7158;SDS011;63175;52.374;13.132;2023-12-20T03:55:24;6.67;;;5.47;;
7158;SDS011;63175;52.374;13.132;2023-12-20T03:57:51;5.43;;;4.93;;
7158;SDS011;63175;52.374;13.132;2023-12-20T04:00:18;5.37;;;4.97;;
7158;SDS011;63175;52.374;13.132;2023-12-20T04:02:45;5.73;;;5.10;;
7158;SDS011;63175;52.374;13.132;2023-12-20T04:05:13;4.30;;;4.00;;
7158;SDS011;63175;52.374;13.132;2023-12-20T04:07:40;4.80;;;4.40;;
7158;SDS011;63175;52.374;13.132;2023-12-20T04:10:07;5.43;;;4.93;;
7158;SDS011;63175;52.374;13.132;2023-12-20T04:12:34;4.73;;;3.90;;
7158;SDS011;63175;52.374;13.132;2023-12-20T04:15:01;7.77;;;4.60;;
7158;SDS011;63175;52.374;13.132;2023-12-20T04:17:33;6.43;;;3.57;;
7158;SDS011;63175;52.374;13.132;2023-12-20T04:20:00;7.20;;;3.43;;
7158;SDS011;63175;52.374;13.132;2023-12-20T04:22:29;6.67;;;4.20;;
7158;SDS011;63175;52.374;13.132;2023-12-20T04:24:55;4.37;;;3.20;;
7158;SDS011;63175;52.374;13.132;2023-12-20T04:27:22;4.23;;;3.50;;
7158;SDS011;63175;52.374;13.132;2023-12-20T04:29:49;3.30;;;3.00;;
7158;SDS011;63175;52.374;13.132;2023-12-20T04:32:16;8.33;;;2.97;;
7158;SDS011;63175;52.374;13.132;2023-12-20T04:34:43;4.40;;;2.50;;
7158;SDS011;63175;52.374;13.132;2023-12-20T04:37:09;2.80;;;2.47;;
7158;SDS011;63175;52.374;13.132;2023-12-20T04:39:38;8.97;;;3.50;;
7158;SDS011;63175;52.374;13.132;2023-12-20T04:42:06;6.47;;;2.67;;
7158;SDS011;63175;52.374;13.132;2023-12-20T04:44:33;4.33;;;1.87;;
7158;SDS011;63175;52.374;13.132;2023-12-20T04:47:00;3.37;;;1.50;;
7158;SDS011;63175;52.374;13.132;2023-12-20T04:49:27;8.50;;;2.37;;
7158;SDS011;63175;52.374;13.132;2023-12-20T04:51:54;10.30;;;1.60;;
7158;SDS011;63175;52.374;13.132;2023-12-20T04:54:20;1.20;;;1.10;;
7158;SDS011;63175;52.374;13.132;2023-12-20T04:56:49;4.77;;;1.53;;
7158;SDS011;63175;52.374;13.132;2023-12-20T04:59:16;1.57;;;1.00;;
7158;SDS011;63175;52.374;13.132;2023-12-20T05:01:42;4.03;;;1.30;;
7158;SDS011;63175;52.374;13.132;2023-12-20T05:04:09;4.90;;;1.20;;
7158;SDS011;63175;52.374;13.132;2023-12-20T05:06:36;4.97;;;1.57;;
7158;SDS011;63175;52.374;13.132;2023-12-20T05:09:03;6.50;;;1.43;;
7158;SDS011;63175;52.374;13.132;2023-12-20T05:11:30;4.93;;;1.50;;
7158;SDS011;63175;52.374;13.132;2023-12-20T05:13:58;12.27;;;2.20;;
7158;SDS011;63175;52.374;13.132;2023-12-20T05:16:25;3.17;;;1.20;;
7158;SDS011;63175;52.374;13.132;2023-12-20T05:18:51;7.97;;;1.63;;
7158;SDS011;63175;52.374;13.132;2023-12-20T05:21:18;5.07;;;1.57;;
7158;SDS011;63175;52.374;13.132;2023-12-20T05:23:45;4.37;;;1.43;;
7158;SDS011;63175;52.374;13.132;2023-12-20T05:26:12;5.67;;;1.13;;
7158;SDS011;63175;52.374;13.132;2023-12-20T05:28:39;5.60;;;2.10;;
7158;SDS011;63175;52.374;13.132;2023-12-20T05:31:07;4.80;;;1.47;;
7158;SDS011;63175;52.374;13.132;2023-12-20T05:33:34;3.57;;;1.07;;
7158;SDS011;63175;52.374;13.132;2023-12-20T05:36:01;3.70;;;1.13;;
7158;SDS011;63175;52.374;13.132;2023-12-20T05:38:28;7.23;;;1.30;;
7158;SDS011;63175;52.374;13.132;2023-12-20T05:40:54;6.00;;;1.47;;
7158;SDS011;63175;52.374;13.132;2023-12-20T05:43:21;6.23;;;1.17;;
7158;SDS011;63175;52.374;13.132;2023-12-20T05:45:48;2.97;;;1.27;;
7158;SDS011;63175;52.374;13.132;2023-12-20T05:48:17;8.73;;;1.20;;
7158;SDS011;63175;52.374;13.132;2023-12-20T05:50:43;8.33;;;1.23;;
7158;SDS011;63175;52.374;13.132;2023-12-20T05:53:10;5.10;;;1.57;;
7158;SDS011;63175;52.374;13.132;2023-12-20T05:55:37;2.70;;;1.67;;
7158;SDS011;63175;52.374;13.132;2023-12-20T05:58:04;6.50;;;1.87;;
7158;SDS011;63175;52.374;13.132;2023-12-20T06:00:31;5.20;;;1.40;;
7158;SDS011;63175;52.374;13.132;2023-12-20T06:02:58;2.07;;;1.10;;
7158;SDS011;63175;52.374;13.132;2023-12-20T06:05:26;4.53;;;1.67;;
7158;SDS011;63175;52.374;13.132;2023-12-20T06:07:53;4.40;;;1.60;;
7158;SDS011;63175;52.374;13.132;2023-12-20T06:10:21;5.10;;;1.20;;
7158;SDS011;63175;52.374;13.132;2023-12-20T06:12:48;3.33;;;1.10;;
7158;SDS011;63175;52.374;13.132;2023-12-20T06:15:16;2.40;;;1.40;;
7158;SDS011;63175;52.374;13.132;2023-12-20T06:17:43;6.70;;;1.40;;
7158;SDS011;63175;52.374;13.132;2023-12-20T06:20:10;2.87;;;1.50;;
7158;SDS011;63175;52.374;13.132;2023-12-20T06:22:39;3.70;;;1.97;;
7158;SDS011;63175;52.374;13.132;2023-12-20T06:25:06;3.60;;;1.07;;
7158;SDS011;63175;52.374;13.132;2023-12-20T06:27:33;5.90;;;1.37;;
7158;SDS011;63175;52.374;13.132;2023-12-20T06:30:00;3.70;;;1.50;;
7158;SDS011;63175;52.374;13.132;2023-12-20T06:32:27;1.83;;;0.90;;
7158;SDS011;63175;52.374;13.132;2023-12-20T06:34:55;1.53;;;1.17;;
7158;SDS011;63175;52.374;13.132;2023-12-20T06:37:22;2.30;;;1.43;;
7158;SDS011;63175;52.374;13.132;2023-12-20T06:39:50;5.13;;;1.30;;
7158;SDS011;63175;52.374;13.132;2023-12-20T06:42:17;4.20;;;1.47;;
7158;SDS011;63175;52.374;13.132;2023-12-20T06:44:43;5.33;;;1.60;;
7158;SDS011;63175;52.374;13.132;2023-12-20T06:47:10;3.20;;;1.50;;
7158;SDS011;63175;52.374;13.132;2023-12-20T06:49:39;5.43;;;1.50;;
7158;SDS011;63175;52.374;13.132;2023-12-20T06:52:05;6.53;;;1.47;;
7158;SDS011;63175;52.374;13.132;2023-12-20T06:54:32;1.83;;;1.00;;
7158;SDS011;63175;52.374;13.132;2023-12-20T06:57:01;5.27;;;1.50;;
7158;SDS011;63175;52.374;13.132;2023-12-20T06:59:29;1.73;;;0.93;;
7158;SDS011;63175;52.374;13.132;2023-12-20T07:01:56;8.03;;;2.00;;
7158;SDS011;63175;52.374;13.132;2023-12-20T07:04:23;4.97;;;1.37;;
7158;SDS011;63175;52.374;13.132;2023-12-20T07:06:50;5.13;;;1.80;;
7158;SDS011;63175;52.374;13.132;2023-12-20T07:09:18;2.60;;;0.90;;
7158;SDS011;63175;52.374;13.132;2023-12-20T07:11:45;7.13;;;1.57;;
7158;SDS011;63175;52.374;13.132;2023-12-20T07:14:14;4.17;;;1.03;;
7158;SDS011;63175;52.374;13.132;2023-12-20T07:16:41;8.43;;;1.50;;
7158;SDS011;63175;52.374;13.132;2023-12-20T07:19:07;5.83;;;1.53;;
7158;SDS011;63175;52.374;13.132;2023-12-20T07:21:34;9.47;;;1.37;;
7158;SDS011;63175;52.374;13.132;2023-12-20T07:24:01;10.63;;;1.77;;
7158;SDS011;63175;52.374;13.132;2023-12-20T07:26:28;7.20;;;1.10;;
7158;SDS011;63175;52.374;13.132;2023-12-20T07:28:54;2.87;;;1.13;;
7158;SDS011;63175;52.374;13.132;2023-12-20T07:31:23;2.50;;;1.10;;
7158;SDS011;63175;52.374;13.132;2023-12-20T07:33:49;2.77;;;0.80;;
7158;SDS011;63175;52.374;13.132;2023-12-20T07:36:16;3.97;;;1.23;;
7158;SDS011;63175;52.374;13.132;2023-12-20T07:38:43;10.83;;;2.00;;
7158;SDS011;63175;52.374;13.132;2023-12-20T07:41:10;5.00;;;1.13;;
7158;SDS011;63175;52.374;13.132;2023-12-20T07:43:37;3.60;;;1.47;;
7158;SDS011;63175;52.374;13.132;2023-12-20T07:46:04;5.33;;;1.10;;
7158;SDS011;63175;52.374;13.132;2023-12-20T07:48:33;4.77;;;1.00;;
7158;SDS011;63175;52.374;13.132;2023-12-20T07:51:00;11.10;;;1.53;;
7158;SDS011;63175;52.374;13.132;2023-12-20T07:53:27;4.03;;;1.23;;
7158;SDS011;63175;52.374;13.132;2023-12-20T07:55:54;3.30;;;1.30;;
7158;SDS011;63175;52.374;13.132;2023-12-20T07:58:21;3.73;;;1.63;;
7158;SDS011;63175;52.374;13.132;2023-12-20T08:00:48;5.80;;;1.53;;
7158;SDS011;63175;52.374;13.132;2023-12-20T08:03:15;3.33;;;1.27;;
7158;SDS011;63175;52.374;13.132;2023-12-20T08:05:43;9.63;;;1.57;;
7158;SDS011;63175;52.374;13.132;2023-12-20T08:08:09;3.80;;;1.40;;
7158;SDS011;63175;52.374;13.132;2023-12-20T08:10:36;9.90;;;1.70;;
7158;SDS011;63175;52.374;13.132;2023-12-20T08:13:03;9.80;;;1.80;;
7158;SDS011;63175;52.374;13.132;2023-12-20T08:15:29;5.40;;;1.33;;
7158;SDS011;63175;52.374;13.132;2023-12-20T08:17:56;4.73;;;1.53;;
7158;SDS011;63175;52.374;13.132;2023-12-20T08:20:23;6.87;;;2.23;;
7158;SDS011;63175;52.374;13.132;2023-12-20T08:22:51;3.07;;;1.30;;
7158;SDS011;63175;52.374;13.132;2023-12-20T08:25:18;6.80;;;2.33;;
7158;SDS011;63175;52.374;13.132;2023-12-20T08:27:44;5.77;;;0.97;;
7158;SDS011;63175;52.374;13.132;2023-12-20T08:30:11;6.03;;;1.90;;
7158;SDS011;63175;52.374;13.132;2023-12-20T08:32:38;5.40;;;1.30;;
7158;SDS011;63175;52.374;13.132;2023-12-20T08:35:05;11.93;;;1.60;;
7158;SDS011;63175;52.374;13.132;2023-12-20T08:37:32;5.77;;;1.30;;
7158;SDS011;63175;52.374;13.132;2023-12-20T08:40:02;10.80;;;1.30;;
7158;SDS011;63175;52.374;13.132;2023-12-20T08:42:29;5.50;;;1.70;;
7158;SDS011;63175;52.374;13.132;2023-12-20T08:44:56;4.03;;;1.37;;
7158;SDS011;63175;52.374;13.132;2023-12-20T08:47:24;3.60;;;1.10;;
7158;SDS011;63175;52.374;13.132;2023-12-20T08:49:51;5.60;;;1.20;;
7158;SDS011;63175;52.374;13.132;2023-12-20T08:52:21;6.77;;;2.07;;
7158;SDS011;63175;52.374;13.132;2023-12-20T08:54:48;8.93;;;1.20;;
7158;SDS011;63175;52.374;13.132;2023-12-20T08:57:18;6.90;;;1.50;;
7158;SDS011;63175;52.374;13.132;2023-12-20T08:59:46;1.97;;;1.07;;
7158;SDS011;63175;52.374;13.132;2023-12-20T09:02:13;1.63;;;1.07;;
7158;SDS011;63175;52.374;13.132;2023-12-20T09:04:40;4.10;;;1.50;;
7158;SDS011;63175;52.374;13.132;2023-12-20T09:07:20;5.07;;;1.10;;
7158;SDS011;63175;52.374;13.132;2023-12-20T09:09:47;6.30;;;1.30;;
7158;SDS011;63175;52.374;13.132;2023-12-20T09:12:14;6.00;;;2.90;;
7158;SDS011;63175;52.374;13.132;2023-12-20T09:14:42;5.10;;;1.40;;
7158;SDS011;63175;52.374;13.132;2023-12-20T09:17:09;4.67;;;1.73;;
7158;SDS011;63175;52.374;13.132;2023-12-20T09:19:37;13.07;;;1.63;;
7158;SDS011;63175;52.374;13.132;2023-12-20T09:22:04;7.60;;;1.10;;
7158;SDS011;63175;52.374;13.132;2023-12-20T09:24:31;4.73;;;1.53;;
7158;SDS011;63175;52.374;13.132;2023-12-20T09:26:58;10.40;;;1.43;;
7158;SDS011;63175;52.374;13.132;2023-12-20T09:29:24;2.03;;;0.90;;
7158;SDS011;63175;52.374;13.132;2023-12-20T09:31:53;2.90;;;1.30;;
7158;SDS011;63175;52.374;13.132;2023-12-20T09:34:19;12.30;;;2.10;;
7158;SDS011;63175;52.374;13.132;2023-12-20T09:36:47;8.40;;;2.03;;
7158;SDS011;63175;52.374;13.132;2023-12-20T09:39:14;7.50;;;1.27;;
7158;SDS011;63175;52.374;13.132;2023-12-20T09:41:44;5.30;;;1.63;;
7158;SDS011;63175;52.374;13.132;2023-12-20T09:44:13;6.03;;;1.47;;
7158;SDS011;63175;52.374;13.132;2023-12-20T09:46:43;3.07;;;1.20;;
7158;SDS011;63175;52.374;13.132;2023-12-20T09:49:12;7.27;;;1.40;;
7158;SDS011;63175;52.374;13.132;2023-12-20T09:51:40;8.27;;;1.10;;
7158;SDS011;63175;52.374;13.132;2023-12-20T09:54:08;8.83;;;1.97;;
7158;SDS011;63175;52.374;13.132;2023-12-20T09:56:35;3.97;;;1.10;;
7158;SDS011;63175;52.374;13.132;2023-12-20T09:59:03;8.57;;;2.00;;
7158;SDS011;63175;52.374;13.132;2023-12-20T10:01:30;13.20;;;2.40;;
7158;SDS011;63175;52.374;13.132;2023-12-20T10:03:57;8.33;;;1.83;;
7158;SDS011;63175;52.374;13.132;2023-12-20T10:06:28;9.70;;;1.80;;
7158;SDS011;63175;52.374;13.132;2023-12-20T10:08:55;18.13;;;1.70;;
7158;SDS011;63175;52.374;13.132;2023-12-20T10:11:22;5.23;;;1.80;;
7158;SDS011;63175;52.374;13.132;2023-12-20T10:13:49;6.40;;;2.13;;
7158;SDS011;63175;52.374;13.132;2023-12-20T10:16:16;6.83;;;1.50;;
7158;SDS011;63175;52.374;13.132;2023-12-20T10:18:42;4.20;;;2.10;;
7158;SDS011;63175;52.374;13.132;2023-12-20T10:21:11;10.00;;;2.10;;
7158;SDS011;63175;52.374;13.132;2023-12-20T10:23:40;4.73;;;1.47;;
7158;SDS011;63175;52.374;13.132;2023-12-20T10:26:06;8.00;;;1.80;;
7158;SDS011;63175;52.374;13.132;2023-12-20T10:28:34;12.90;;;2.57;;
7158;SDS011;63175;52.374;13.132;2023-12-20T10:31:02;9.07;;;1.50;;
7158;SDS011;63175;52.374;13.132;2023-12-20T10:33:29;4.77;;;1.50;;
7158;SDS011;63175;52.374;13.132;2023-12-20T10:35:57;7.03;;;1.60;;
7158;SDS011;63175;52.374;13.132;2023-12-20T10:38:24;6.70;;;2.00;;
7158;SDS011;63175;52.374;13.132;2023-12-20T10:40:54;8.13;;;2.00;;
7158;SDS011;63175;52.374;13.132;2023-12-20T10:43:24;9.63;;;1.83;;
7158;SDS011;63175;52.374;13.132;2023-12-20T10:45:52;14.73;;;2.33;;
7158;SDS011;63175;52.374;13.132;2023-12-20T10:48:19;3.93;;;1.00;;
7158;SDS011;63175;52.374;13.132;2023-12-20T10:50:52;5.20;;;1.83;;
7158;SDS011;63175;52.374;13.132;2023-12-20T10:53:21;8.07;;;1.60;;
7158;SDS011;63175;52.374;13.132;2023-12-20T10:55:50;6.13;;;1.77;;
7158;SDS011;63175;52.374;13.132;2023-12-20T10:58:21;4.20;;;1.50;;
7158;SDS011;63175;52.374;13.132;2023-12-20T11:00:50;3.60;;;1.40;;
7158;SDS011;63175;52.374;13.132;2023-12-20T11:03:23;4.30;;;1.67;;
7158;SDS011;63175;52.374;13.132;2023-12-20T11:05:55;2.70;;;1.03;;
7158;SDS011;63175;52.374;13.132;2023-12-20T11:08:28;7.03;;;1.50;;
7158;SDS011;63175;52.374;13.132;2023-12-20T11:11:05;7.60;;;1.50;;
7158;SDS011;63175;52.374;13.132;2023-12-20T11:13:36;5.37;;;1.63;;
7158;SDS011;63175;52.374;13.132;2023-12-20T11:16:06;3.23;;;1.90;;
7158;SDS011;63175;52.374;13.132;2023-12-20T11:18:33;4.33;;;1.43;;
7158;SDS011;63175;52.374;13.132;2023-12-20T11:21:01;7.37;;;1.47;;
7158;SDS011;63175;52.374;13.132;2023-12-20T11:23:30;9.57;;;2.07;;
7158;SDS011;63175;52.374;13.132;2023-12-20T11:25:59;4.10;;;1.33;;
7158;SDS011;63175;52.374;13.132;2023-12-20T11:28:29;9.20;;;2.37;;
7158;SDS011;63175;52.374;13.132;2023-12-20T11:30:56;4.70;;;1.73;;
7158;SDS011;63175;52.374;13.132;2023-12-20T11:33:25;5.67;;;1.60;;
7158;SDS011;63175;52.374;13.132;2023-12-20T11:35:54;6.80;;;2.00;;
7158;SDS011;63175;52.374;13.132;2023-12-20T11:38:21;6.33;;;1.70;;
7158;SDS011;63175;52.374;13.132;2023-12-20T11:40:49;7.60;;;1.77;;
7158;SDS011;63175;52.374;13.132;2023-12-20T11:43:30;5.80;;;1.20;;
7158;SDS011;63175;52.374;13.132;2023-12-20T11:46:02;2.07;;;1.20;;
7158;SDS011;63175;52.374;13.132;2023-12-20T11:48:31;9.93;;;2.47;;
7158;SDS011;63175;52.374;13.132;2023-12-20T11:50:58;5.90;;;1.73;;
7158;SDS011;63175;52.374;13.132;2023-12-20T11:53:25;3.97;;;1.50;;
7158;SDS011;63175;52.374;13.132;2023-12-20T11:55:52;10.20;;;1.33;;
7158;SDS011;63175;52.374;13.132;2023-12-20T11:58:20;5.50;;;1.77;;
7158;SDS011;63175;52.374;13.132;2023-12-20T12:00:49;6.20;;;1.70;;
7158;SDS011;63175;52.374;13.132;2023-12-20T12:03:16;4.17;;;1.20;;
7158;SDS011;63175;52.374;13.132;2023-12-20T12:05:43;6.50;;;1.43;;
7158;SDS011;63175;52.374;13.132;2023-12-20T12:08:13;4.00;;;1.50;;
7158;SDS011;63175;52.374;13.132;2023-12-20T12:10:40;4.43;;;1.43;;
7158;SDS011;63175;52.374;13.132;2023-12-20T12:13:07;3.33;;;1.50;;
7158;SDS011;63175;52.374;13.132;2023-12-20T12:15:34;5.43;;;1.87;;
7158;SDS011;63175;52.374;13.132;2023-12-20T12:18:04;4.03;;;1.40;;
7158;SDS011;63175;52.374;13.132;2023-12-20T12:20:31;4.80;;;1.50;;
7158;SDS011;63175;52.374;13.132;2023-12-20T12:22:58;1.70;;;0.80;;
7158;SDS011;63175;52.374;13.132;2023-12-20T12:25:26;4.13;;;1.70;;
7158;SDS011;63175;52.374;13.132;2023-12-20T12:27:55;3.20;;;1.10;;
7158;SDS011;63175;52.374;13.132;2023-12-20T12:30:22;7.00;;;1.30;;
7158;SDS011;63175;52.374;13.132;2023-12-20T12:32:50;4.60;;;1.70;;
7158;SDS011;63175;52.374;13.132;2023-12-20T12:35:18;4.30;;;1.20;;
7158;SDS011;63175;52.374;13.132;2023-12-20T12:37:45;6.40;;;1.60;;
7158;SDS011;63175;52.374;13.132;2023-12-20T12:40:12;2.00;;;1.13;;
7158;SDS011;63175;52.374;13.132;2023-12-20T12:42:40;4.13;;;2.13;;
7158;SDS011;63175;52.374;13.132;2023-12-20T12:45:08;7.47;;;1.60;;
7158;SDS011;63175;52.374;13.132;2023-12-20T12:47:36;8.73;;;1.90;;
7158;SDS011;63175;52.374;13.132;2023-12-20T12:50:04;2.60;;;1.47;;
7158;SDS011;63175;52.374;13.132;2023-12-20T12:52:32;10.00;;;2.03;;
7158;SDS011;63175;52.374;13.132;2023-12-20T12:55:00;3.93;;;1.90;;
7158;SDS011;63175;52.374;13.132;2023-12-20T12:57:28;9.13;;;2.23;;
7158;SDS011;63175;52.374;13.132;2023-12-20T12:59:55;3.40;;;1.47;;
7158;SDS011;63175;52.374;13.132;2023-12-20T13:02:23;5.73;;;1.70;;
7158;SDS011;63175;52.374;13.132;2023-12-20T13:04:50;5.33;;;1.73;;
7158;SDS011;63175;52.374;13.132;2023-12-20T13:07:17;5.00;;;1.70;;
7158;SDS011;63175;52.374;13.132;2023-12-20T13:09:45;2.90;;;1.53;;
7158;SDS011;63175;52.374;13.132;2023-12-20T13:12:12;4.13;;;1.53;;
7158;SDS011;63175;52.374;13.132;2023-12-20T13:14:39;13.97;;;2.03;;
7158;SDS011;63175;52.374;13.132;2023-12-20T13:17:06;2.90;;;1.93;;
7158;SDS011;63175;52.374;13.132;2023-12-20T13:19:33;2.97;;;1.30;;
7158;SDS011;63175;52.374;13.132;2023-12-20T13:22:00;6.33;;;1.47;;
7158;SDS011;63175;52.374;13.132;2023-12-20T13:24:27;12.23;;;2.27;;
7158;SDS011;63175;52.374;13.132;2023-12-20T13:26:55;4.80;;;2.20;;
7158;SDS011;63175;52.374;13.132;2023-12-20T13:29:22;3.10;;;1.90;;
7158;SDS011;63175;52.374;13.132;2023-12-20T13:31:52;13.63;;;2.27;;
7158;SDS011;63175;52.374;13.132;2023-12-20T13:34:19;1.03;;;1.03;;
7158;SDS011;63175;52.374;13.132;2023-12-20T13:36:46;3.47;;;0.97;;
7158;SDS011;63175;52.374;13.132;2023-12-20T13:39:15;4.23;;;0.70;;
7158;SDS011;63175;52.374;13.132;2023-12-20T13:41:43;2.60;;;0.60;;
7158;SDS011;63175;52.374;13.132;2023-12-20T13:44:11;8.90;;;0.80;;
7158;SDS011;63175;52.374;13.132;2023-12-20T13:46:38;0.90;;;0.50;;
7158;SDS011;63175;52.374;13.132;2023-12-20T13:49:06;1.53;;;0.60;;
7158;SDS011;63175;52.374;13.132;2023-12-20T13:51:32;0.80;;;0.50;;
7158;SDS011;63175;52.374;13.132;2023-12-20T13:53:59;2.60;;;0.70;;
7158;SDS011;63175;52.374;13.132;2023-12-20T13:56:26;2.20;;;0.57;;
7158;SDS011;63175;52.374;13.132;2023-12-20T13:58:53;0.77;;;0.50;;
7158;SDS011;63175;52.374;13.132;2023-12-20T14:01:21;0.83;;;0.60;;
7158;SDS011;63175;52.374;13.132;2023-12-20T14:03:48;0.83;;;0.40;;
7158;SDS011;63175;52.374;13.132;2023-12-20T14:06:15;3.93;;;0.67;;
7158;SDS011;63175;52.374;13.132;2023-12-20T14:08:43;1.87;;;0.40;;
7158;SDS011;63175;52.374;13.132;2023-12-20T14:11:09;1.17;;;0.80;;
7158;SDS011;63175;52.374;13.132;2023-12-20T14:13:37;2.63;;;2.03;;
7158;SDS011;63175;52.374;13.132;2023-12-20T14:16:04;1.20;;;0.70;;
7158;SDS011;63175;52.374;13.132;2023-12-20T14:18:33;1.43;;;0.63;;
7158;SDS011;63175;52.374;13.132;2023-12-20T14:20:59;1.40;;;0.80;;
7158;SDS011;63175;52.374;13.132;2023-12-20T14:23:26;0.90;;;0.70;;
7158;SDS011;63175;52.374;13.132;2023-12-20T14:25:53;1.00;;;0.80;;
7158;SDS011;63175;52.374;13.132;2023-12-20T14:28:21;1.60;;;1.10;;
7158;SDS011;63175;52.374;13.132;2023-12-20T14:30:47;0.73;;;0.73;;
7158;SDS011;63175;52.374;13.132;2023-12-20T14:33:15;1.90;;;0.80;;
7158;SDS011;63175;52.374;13.132;2023-12-20T14:35:43;0.83;;;0.80;;
7158;SDS011;63175;52.374;13.132;2023-12-20T14:38:10;4.50;;;0.80;;
7158;SDS011;63175;52.374;13.132;2023-12-20T14:40:39;4.07;;;1.60;;
7158;SDS011;63175;52.374;13.132;2023-12-20T14:43:05;1.97;;;0.53;;
7158;SDS011;63175;52.374;13.132;2023-12-20T14:45:32;1.40;;;0.77;;
7158;SDS011;63175;52.374;13.132;2023-12-20T14:47:59;2.60;;;1.00;;
7158;SDS011;63175;52.374;13.132;2023-12-20T14:50:27;4.13;;;1.10;;